sensor_id;sensor_type;location;lat;lon;timestamp;temperature;humidity
26579;DHT22;14227;47.674;19.320;2023-03-14T03:44:50;14.20;49.50
26579;DHT22;14227;47.674;19.320;2023-03-14T06:57:45;13.80;50.70
26579;DHT22;14227;47.674;19.320;2023-03-14T07:00:12;13.80;50.90
26579;DHT22;14227;47.674;19.320;2023-03-14T07:02:39;13.90;51.10
26579;DHT22;14227;47.674;19.320;2023-03-14T07:05:06;13.80;51.00
26579;DHT22;14227;47.674;19.320;2023-03-14T07:07:32;13.90;51.00
26579;DHT22;14227;47.674;19.320;2023-03-14T07:09:57;13.90;51.10
26579;DHT22;14227;47.674;19.320;2023-03-14T07:12:23;13.90;51.10
26579;DHT22;14227;47.674;19.320;2023-03-14T07:14:49;13.90;51.10
26579;DHT22;14227;47.674;19.320;2023-03-14T07:17:15;13.90;51.20
26579;DHT22;14227;47.674;19.320;2023-03-14T07:19:43;13.90;51.20
26579;DHT22;14227;47.674;19.320;2023-03-14T07:22:09;13.90;51.20
26579;DHT22;14227;47.674;19.320;2023-03-14T07:24:34;13.90;51.10
26579;DHT22;14227;47.674;19.320;2023-03-14T07:27:00;13.90;51.20
26579;DHT22;14227;47.674;19.320;2023-03-14T07:29:26;13.90;51.20
26579;DHT22;14227;47.674;19.320;2023-03-14T07:31:52;13.90;51.20
26579;DHT22;14227;47.674;19.320;2023-03-14T07:34:17;13.90;51.20
26579;DHT22;14227;47.674;19.320;2023-03-14T07:36:44;14.00;51.30
26579;DHT22;14227;47.674;19.320;2023-03-14T07:39:10;13.90;51.10
26579;DHT22;14227;47.674;19.320;2023-03-14T07:41:36;13.90;51.20
26579;DHT22;14227;47.674;19.320;2023-03-14T07:44:02;13.90;51.10
26579;DHT22;14227;47.674;19.320;2023-03-14T07:46:27;14.00;51.30
26579;DHT22;14227;47.674;19.320;2023-03-14T07:48:53;14.00;51.30
26579;DHT22;14227;47.674;19.320;2023-03-14T07:51:21;14.00;51.30
26579;DHT22;14227;47.674;19.320;2023-03-14T07:53:50;14.00;51.40
26579;DHT22;14227;47.674;19.320;2023-03-14T07:56:16;14.00;51.30
26579;DHT22;14227;47.674;19.320;2023-03-14T07:58:41;14.00;51.30
26579;DHT22;14227;47.674;19.320;2023-03-14T08:01:12;14.00;51.40
26579;DHT22;14227;47.674;19.320;2023-03-14T08:03:38;14.00;51.40
26579;DHT22;14227;47.674;19.320;2023-03-14T08:06:15;14.00;51.50
26579;DHT22;14227;47.674;19.320;2023-03-14T08:08:43;14.00;51.50
26579;DHT22;14227;47.674;19.320;2023-03-14T08:11:09;14.00;52.20
26579;DHT22;14227;47.674;19.320;2023-03-14T08:13:38;14.00;51.70
26579;DHT22;14227;47.674;19.320;2023-03-14T08:16:05;14.00;51.70
26579;DHT22;14227;47.674;19.320;2023-03-14T08:18:31;14.00;51.70
26579;DHT22;14227;47.674;19.320;2023-03-14T08:21:00;14.00;51.70
26579;DHT22;14227;47.674;19.320;2023-03-14T08:23:26;14.00;51.90
26579;DHT22;14227;47.674;19.320;2023-03-14T08:25:55;14.10;51.90
26579;DHT22;14227;47.674;19.320;2023-03-14T08:28:20;14.10;51.90
26579;DHT22;14227;47.674;19.320;2023-03-14T08:30:46;14.10;52.00
26579;DHT22;14227;47.674;19.320;2023-03-14T08:33:12;14.10;52.00
26579;DHT22;14227;47.674;19.320;2023-03-14T08:35:38;14.10;52.00
26579;DHT22;14227;47.674;19.320;2023-03-14T08:38:04;14.10;52.00
26579;DHT22;14227;47.674;19.320;2023-03-14T08:40:32;14.10;52.10
26579;DHT22;14227;47.674;19.320;2023-03-14T08:43:00;14.10;52.10
26579;DHT22;14227;47.674;19.320;2023-03-14T08:45:26;14.10;52.10
26579;DHT22;14227;47.674;19.320;2023-03-14T08:47:52;14.10;52.20
26579;DHT22;14227;47.674;19.320;2023-03-14T08:50:17;14.10;52.30
26579;DHT22;14227;47.674;19.320;2023-03-14T08:52:43;14.10;52.30
26579;DHT22;14227;47.674;19.320;2023-03-14T08:55:09;14.10;52.30
26579;DHT22;14227;47.674;19.320;2023-03-14T08:57:35;14.20;52.60
26579;DHT22;14227;47.674;19.320;2023-03-14T09:00:04;14.20;52.70
26579;DHT22;14227;47.674;19.320;2023-03-14T09:02:39;14.20;52.80
26579;DHT22;14227;47.674;19.320;2023-03-14T09:05:05;14.20;52.90
26579;DHT22;14227;47.674;19.320;2023-03-14T09:07:31;14.20;52.90
26579;DHT22;14227;47.674;19.320;2023-03-14T09:09:57;14.20;53.00
26579;DHT22;14227;47.674;19.320;2023-03-14T09:12:23;14.20;53.20
26579;DHT22;14227;47.674;19.320;2023-03-14T09:14:48;14.20;53.40
26579;DHT22;14227;47.674;19.320;2023-03-14T09:17:14;14.20;53.50
26579;DHT22;14227;47.674;19.320;2023-03-14T09:19:39;14.20;53.50
26579;DHT22;14227;47.674;19.320;2023-03-14T09:22:05;14.20;53.50
26579;DHT22;14227;47.674;19.320;2023-03-14T09:24:31;14.30;53.80
26579;DHT22;14227;47.674;19.320;2023-03-14T09:26:57;14.30;53.80
26579;DHT22;14227;47.674;19.320;2023-03-14T09:29:22;14.30;54.00
26579;DHT22;14227;47.674;19.320;2023-03-14T09:31:48;14.30;54.00
26579;DHT22;14227;47.674;19.320;2023-03-14T09:34:14;14.30;54.00
26579;DHT22;14227;47.674;19.320;2023-03-14T09:36:40;14.30;54.20
26579;DHT22;14227;47.674;19.320;2023-03-14T09:39:06;14.40;54.50
26579;DHT22;14227;47.674;19.320;2023-03-14T09:41:46;14.40;54.50
26579;DHT22;14227;47.674;19.320;2023-03-14T09:46:51;14.40;54.50
26579;DHT22;14227;47.674;19.320;2023-03-14T09:49:26;14.40;54.70
26579;DHT22;14227;47.674;19.320;2023-03-14T09:51:54;14.40;54.70
26579;DHT22;14227;47.674;19.320;2023-03-14T09:54:26;14.50;54.80
26579;DHT22;14227;47.674;19.320;2023-03-14T09:56:54;14.50;54.80
26579;DHT22;14227;47.674;19.320;2023-03-14T09:59:20;14.50;55.00
26579;DHT22;14227;47.674;19.320;2023-03-14T10:01:46;14.50;55.10
26579;DHT22;14227;47.674;19.320;2023-03-14T10:04:15;14.60;55.20
26579;DHT22;14227;47.674;19.320;2023-03-14T10:06:43;14.60;55.20
26579;DHT22;14227;47.674;19.320;2023-03-14T10:09:21;14.60;55.30
26579;DHT22;14227;47.674;19.320;2023-03-14T10:11:56;14.70;55.10
26579;DHT22;14227;47.674;19.320;2023-03-14T10:14:34;14.70;55.30
26579;DHT22;14227;47.674;19.320;2023-03-14T10:17:12;14.70;55.40
26579;DHT22;14227;47.674;19.320;2023-03-14T10:19:51;14.70;55.40
26579;DHT22;14227;47.674;19.320;2023-03-14T10:22:19;14.80;55.30
26579;DHT22;14227;47.674;19.320;2023-03-14T10:24:47;14.80;55.50
26579;DHT22;14227;47.674;19.320;2023-03-14T10:27:31;14.80;55.60
26579;DHT22;14227;47.674;19.320;2023-03-14T10:29:59;14.80;55.10
26579;DHT22;14227;47.674;19.320;2023-03-14T10:32:33;14.80;51.90
26579;DHT22;14227;47.674;19.320;2023-03-14T10:47:49;15.10;47.40
26579;DHT22;14227;47.674;19.320;2023-03-14T10:56:11;15.50;46.20
26579;DHT22;14227;47.674;19.320;2023-03-14T10:58:43;15.60;45.60
26579;DHT22;14227;47.674;19.320;2023-03-14T11:07:12;15.90;45.60
26579;DHT22;14227;47.674;19.320;2023-03-14T11:21:13;16.30;43.70
26579;DHT22;14227;47.674;19.320;2023-03-14T11:26:55;16.50;43.60
26579;DHT22;14227;47.674;19.320;2023-03-14T11:29:41;16.60;43.30
26579;DHT22;14227;47.674;19.320;2023-03-14T11:33:04;16.70;42.80
26579;DHT22;14227;47.674;19.320;2023-03-14T11:40:48;16.90;42.70
26579;DHT22;14227;47.674;19.320;2023-03-14T11:43:32;17.00;42.80
26579;DHT22;14227;47.674;19.320;2023-03-14T11:46:24;17.00;42.90
26579;DHT22;14227;47.674;19.320;2023-03-14T11:48:59;17.10;42.20
26579;DHT22;14227;47.674;19.320;2023-03-14T11:51:39;17.20;42.70
26579;DHT22;14227;47.674;19.320;2023-03-14T11:57:01;17.40;42.50
26579;DHT22;14227;47.674;19.320;2023-03-14T12:02:14;17.50;41.80
26579;DHT22;14227;47.674;19.320;2023-03-14T12:08:52;17.60;41.90
26579;DHT22;14227;47.674;19.320;2023-03-14T12:11:35;17.70;42.00
26579;DHT22;14227;47.674;19.320;2023-03-14T12:14:35;17.80;41.10
26579;DHT22;14227;47.674;19.320;2023-03-14T12:17:13;17.80;40.90
26579;DHT22;14227;47.674;19.320;2023-03-14T12:34:40;18.20;40.40
26579;DHT22;14227;47.674;19.320;2023-03-14T12:37:41;18.20;40.20
26579;DHT22;14227;47.674;19.320;2023-03-14T12:43:30;18.40;40.90
26579;DHT22;14227;47.674;19.320;2023-03-14T12:49:32;18.40;41.10
26579;DHT22;14227;47.674;19.320;2023-03-14T12:52:02;18.50;40.90
26579;DHT22;14227;47.674;19.320;2023-03-14T13:09:01;18.60;39.70
26579;DHT22;14227;47.674;19.320;2023-03-14T13:14:53;18.60;39.90
26579;DHT22;14227;47.674;19.320;2023-03-14T13:23:32;18.60;39.40
26579;DHT22;14227;47.674;19.320;2023-03-14T13:26:46;18.60;39.60
26579;DHT22;14227;47.674;19.320;2023-03-14T13:32:21;18.60;38.20
26579;DHT22;14227;47.674;19.320;2023-03-14T13:39:06;18.60;38.50
26579;DHT22;14227;47.674;19.320;2023-03-14T13:42:31;18.60;38.60
26579;DHT22;14227;47.674;19.320;2023-03-14T13:45:27;18.60;37.70
26579;DHT22;14227;47.674;19.320;2023-03-14T13:48:58;18.60;38.60
26579;DHT22;14227;47.674;19.320;2023-03-14T13:51:41;18.60;39.10
26579;DHT22;14227;47.674;19.320;2023-03-14T13:54:46;18.60;40.10
26579;DHT22;14227;47.674;19.320;2023-03-14T13:57:55;18.70;40.80
26579;DHT22;14227;47.674;19.320;2023-03-14T14:01:02;18.70;41.10
26579;DHT22;14227;47.674;19.320;2023-03-14T14:03:39;18.70;41.80
26579;DHT22;14227;47.674;19.320;2023-03-14T14:06:32;18.70;42.10
26579;DHT22;14227;47.674;19.320;2023-03-14T14:09:04;18.60;41.80
26579;DHT22;14227;47.674;19.320;2023-03-14T14:12:02;18.60;42.30
26579;DHT22;14227;47.674;19.320;2023-03-14T14:14:42;18.60;41.90
26579;DHT22;14227;47.674;19.320;2023-03-14T14:17:12;18.60;41.60
26579;DHT22;14227;47.674;19.320;2023-03-14T14:19:39;18.60;41.20
26579;DHT22;14227;47.674;19.320;2023-03-14T14:22:07;18.60;40.80
26579;DHT22;14227;47.674;19.320;2023-03-14T14:24:38;18.60;41.40
26579;DHT22;14227;47.674;19.320;2023-03-14T14:27:16;18.70;42.00
26579;DHT22;14227;47.674;19.320;2023-03-14T14:29:43;18.60;40.50
26579;DHT22;14227;47.674;19.320;2023-03-14T14:32:14;18.60;40.20
26579;DHT22;14227;47.674;19.320;2023-03-14T14:34:55;18.60;40.20
26579;DHT22;14227;47.674;19.320;2023-03-14T14:37:25;18.60;40.80
26579;DHT22;14227;47.674;19.320;2023-03-14T14:39:55;18.60;39.70
26579;DHT22;14227;47.674;19.320;2023-03-14T14:42:25;18.60;39.50
26579;DHT22;14227;47.674;19.320;2023-03-14T14:44:52;18.60;40.00
26579;DHT22;14227;47.674;19.320;2023-03-14T14:47:27;18.60;39.70
26579;DHT22;14227;47.674;19.320;2023-03-14T14:49:59;18.60;38.50
26579;DHT22;14227;47.674;19.320;2023-03-14T14:52:40;18.60;39.40
26579;DHT22;14227;47.674;19.320;2023-03-14T14:55:18;18.60;39.60
26579;DHT22;14227;47.674;19.320;2023-03-14T14:57:54;18.60;40.30
26579;DHT22;14227;47.674;19.320;2023-03-14T15:03:13;18.60;39.60
26579;DHT22;14227;47.674;19.320;2023-03-14T15:18:36;18.60;38.80
26579;DHT22;14227;47.674;19.320;2023-03-14T15:21:04;18.60;38.80
26579;DHT22;14227;47.674;19.320;2023-03-14T15:23:31;18.60;38.90
26579;DHT22;14227;47.674;19.320;2023-03-14T15:25:57;18.60;38.70
26579;DHT22;14227;47.674;19.320;2023-03-14T15:28:27;18.60;38.90
26579;DHT22;14227;47.674;19.320;2023-03-14T15:30:55;18.60;38.30
26579;DHT22;14227;47.674;19.320;2023-03-14T15:38:53;18.60;38.80
26579;DHT22;14227;47.674;19.320;2023-03-14T15:42:26;18.60;39.40
26579;DHT22;14227;47.674;19.320;2023-03-14T15:44:51;18.50;37.90
26579;DHT22;14227;47.674;19.320;2023-03-14T15:47:26;18.50;37.70
26579;DHT22;14227;47.674;19.320;2023-03-14T15:50:04;18.50;37.40
26579;DHT22;14227;47.674;19.320;2023-03-14T16:01:34;18.50;37.10
26579;DHT22;14227;47.674;19.320;2023-03-14T16:09:19;18.40;37.00
26579;DHT22;14227;47.674;19.320;2023-03-14T16:11:46;18.40;37.10
26579;DHT22;14227;47.674;19.320;2023-03-14T16:14:32;18.50;37.80
26579;DHT22;14227;47.674;19.320;2023-03-14T16:17:00;18.40;38.70
26579;DHT22;14227;47.674;19.320;2023-03-14T16:19:26;18.40;40.40
26579;DHT22;14227;47.674;19.320;2023-03-14T16:21:56;18.40;41.20
26579;DHT22;14227;47.674;19.320;2023-03-14T16:24:27;18.40;41.90
26579;DHT22;14227;47.674;19.320;2023-03-14T16:26:55;18.40;42.60
26579;DHT22;14227;47.674;19.320;2023-03-14T16:29:24;18.40;42.60
26579;DHT22;14227;47.674;19.320;2023-03-14T16:32:04;18.40;42.60
26579;DHT22;14227;47.674;19.320;2023-03-14T16:34:40;18.40;43.80
26579;DHT22;14227;47.674;19.320;2023-03-14T16:51:12;18.40;45.30
26579;DHT22;14227;47.674;19.320;2023-03-14T16:53:47;18.40;45.60
26579;DHT22;14227;47.674;19.320;2023-03-14T16:56:15;18.40;46.90
26579;DHT22;14227;47.674;19.320;2023-03-14T16:59:04;18.40;46.00
26579;DHT22;14227;47.674;19.320;2023-03-14T17:01:33;18.30;47.20
26579;DHT22;14227;47.674;19.320;2023-03-14T17:04:08;18.30;47.90
26579;DHT22;14227;47.674;19.320;2023-03-14T17:06:39;18.40;48.40
26579;DHT22;14227;47.674;19.320;2023-03-14T17:09:24;18.40;48.90
26579;DHT22;14227;47.674;19.320;2023-03-14T17:11:50;18.30;49.40
26579;DHT22;14227;47.674;19.320;2023-03-14T17:14:16;18.40;50.30
26579;DHT22;14227;47.674;19.320;2023-03-14T17:16:44;18.30;49.80
26579;DHT22;14227;47.674;19.320;2023-03-14T17:19:29;18.30;50.10
26579;DHT22;14227;47.674;19.320;2023-03-14T17:21:57;18.30;50.00
26579;DHT22;14227;47.674;19.320;2023-03-14T17:24:23;18.30;50.40
26579;DHT22;14227;47.674;19.320;2023-03-14T17:26:52;18.30;50.40
26579;DHT22;14227;47.674;19.320;2023-03-14T17:29:18;18.30;50.30
26579;DHT22;14227;47.674;19.320;2023-03-14T17:31:48;18.30;50.80
26579;DHT22;14227;47.674;19.320;2023-03-14T17:34:32;18.30;50.70
26579;DHT22;14227;47.674;19.320;2023-03-14T17:40:33;18.30;49.80
26579;DHT22;14227;47.674;19.320;2023-03-14T20:52:08;17.40;50.70
